Time;durP1;ratioP1;P1;durP2;ratioP2;P2;SDS_P1;SDS_P2;PMS_P1;PMS_P2;Temp;Humidity;BMP_temperature;BMP_pressure;BME280_temperature;BME280_humidity;BME280_pressure;Samples;Min_cycle;Max_cycle;Signal;HPM_P1;HPM_P2
2023/01/18 00:00:46;;;;;;;11.90;2.55;;;;;;;;;;6240196;23;20011;-92
2023/01/18 00:03:13;;;;;;;6.03;2.70;;;;;;;;;;6240742;23;20004;-91
2023/01/18 00:05:40;;;;;;;5.90;2.85;;;;;;;;;;6240430;23;20070;-92
2023/01/18 00:08:10;;;;;;;11.50;3.70;;;;;;;;;;6241064;23;20007;-92
2023/01/18 00:10:36;;;;;;;4.55;2.40;;;;;;;;;;6241514;23;20039;-92
2023/01/18 00:13:02;;;;;;;6.97;2.50;;;;;;;;;;6240473;23;20008;-92
2023/01/18 00:15:30;;;;;;;5.13;2.92;;;;;;;;;;6242385;23;20012;-93
2023/01/18 00:17:56;;;;;;;7.18;3.05;;;;;;;;;;6240983;23;20065;-92
2023/01/18 00:20:23;;;;;;;5.05;2.70;;;;;;;;;;6191075;23;20095;-94
2023/01/18 00:22:49;;;;;;;5.18;2.90;;;;;;;;;;6242702;23;20062;-91
2023/01/18 00:25:16;;;;;;;9.10;2.63;;;;;;;;;;6241888;22;20035;-92
2023/01/18 00:27:52;;;;;;;9.57;4.10;;;;;;;;;;6190897;23;20019;-92
2023/01/18 00:30:22;;;;;;;14.15;3.50;;;;;;;;;;6242136;23;20012;-92
2023/01/18 00:32:48;;;;;;;21.02;4.32;;;;;;;;;;6241663;23;20011;-92
2023/01/18 00:35:15;;;;;;;7.20;3.35;;;;;;;;;;6242481;23;20008;-93
2023/01/18 00:37:41;;;;;;;7.60;3.55;;;;;;;;;;6240858;23;20012;-93
2023/01/18 00:40:08;;;;;;;5.97;3.28;;;;;;;;;;6245439;22;20444;-93
2023/01/18 00:45:19;;;;;;;8.55;2.92;;;;;;;;;;6223293;23;20019;-92
2023/01/18 00:47:45;;;;;;;10.30;3.38;;;;;;;;;;6243393;23;20219;-93
2023/01/18 00:50:11;;;;;;;4.38;1.85;;;;;;;;;;6219182;23;20026;-92
2023/01/18 00:52:37;;;;;;;6.50;2.88;;;;;;;;;;6242833;23;20558;-93
2023/01/18 00:55:06;;;;;;;6.68;3.00;;;;;;;;;;6191940;23;20020;-93
2023/01/18 00:57:33;;;;;;;8.23;2.97;;;;;;;;;;6191474;23;20008;-93
2023/01/18 00:59:59;;;;;;;9.70;3.72;;;;;;;;;;6190394;23;20019;-92
2023/01/18 01:02:25;;;;;;;6.65;2.90;;;;;;;;;;6241014;23;20050;-93
2023/01/18 01:07:36;;;;;;;5.65;3.03;;;;;;;;;;6220420;23;20020;-93
2023/01/18 01:10:07;;;;;;;8.38;2.95;;;;;;;;;;6190971;23;20008;-94
2023/01/18 01:26:18;;;;;;;6.22;3.22;;;;;;;;;;6220810;23;20078;-94
2023/01/18 01:28:49;;;;;;;7.43;3.30;;;;;;;;;;6191686;23;20559;-92
2023/01/18 01:31:15;;;;;;;7.38;3.08;;;;;;;;;;6242007;23;20461;-92
2023/01/18 01:33:42;;;;;;;12.77;3.45;;;;;;;;;;6241069;23;20008;-92
2023/01/18 01:36:16;;;;;;;4.50;2.88;;;;;;;;;;6238495;23;20004;-92
2023/01/18 01:38:42;;;;;;;13.35;4.07;;;;;;;;;;6241115;23;20023;-93
2023/01/18 01:41:08;;;;;;;6.47;3.42;;;;;;;;;;6237711;22;20087;-94
2023/01/18 01:43:45;;;;;;;7.07;3.78;;;;;;;;;;6211799;23;20433;-93
2023/01/18 01:46:17;;;;;;;8.85;3.55;;;;;;;;;;6210367;23;20000;-93
2023/01/18 01:48:44;;;;;;;7.15;3.40;;;;;;;;;;6211431;23;20103;-91
2023/01/18 01:51:10;;;;;;;8.55;4.00;;;;;;;;;;6186879;23;20005;-92
2023/01/18 01:53:37;;;;;;;6.75;3.08;;;;;;;;;;6187053;23;20009;-94
2023/01/18 01:56:03;;;;;;;11.70;3.80;;;;;;;;;;6187768;23;20096;-92
2023/01/18 01:58:31;;;;;;;6.47;2.72;;;;;;;;;;6187785;23;20088;-92
2023/01/18 02:00:58;;;;;;;7.20;3.22;;;;;;;;;;6211517;23;20016;-92
2023/01/18 02:03:25;;;;;;;8.55;3.60;;;;;;;;;;6189247;23;20512;-93
2023/01/18 02:05:54;;;;;;;9.02;3.00;;;;;;;;;;6213360;23;20623;-92
2023/01/18 02:08:23;;;;;;;9.38;3.63;;;;;;;;;;6187508;23;20004;-93
2023/01/18 02:10:50;;;;;;;7.45;2.90;;;;;;;;;;6215562;23;20443;-92
2023/01/18 02:13:17;;;;;;;9.82;3.38;;;;;;;;;;6190703;23;20039;-93
2023/01/18 02:16:12;;;;;;;9.10;3.40;;;;;;;;;;6215038;23;20019;-93
2023/01/18 02:18:56;;;;;;;12.25;3.90;;;;;;;;;;6214406;23;20391;-93
2023/01/18 02:21:34;;;;;;;7.72;3.40;;;;;;;;;;6210041;23;20524;-93
2023/01/18 02:24:36;;;;;;;14.32;3.60;;;;;;;;;;6213746;23;20035;-94
2023/01/18 02:27:17;;;;;;;9.38;3.35;;;;;;;;;;6126533;23;20462;-93
2023/01/18 02:29:50;;;;;;;3.00;2.03;;;;;;;;;;6203964;23;20348;-91
2023/01/18 02:32:22;;;;;;;6.65;3.00;;;;;;;;;;6214028;23;20004;-91
2023/01/18 02:34:55;;;;;;;7.47;3.75;;;;;;;;;;6212981;23;20491;-91
2023/01/18 02:37:44;;;;;;;5.82;2.88;;;;;;;;;;6211411;23;20629;-93
2023/01/18 02:40:16;;;;;;;7.95;3.92;;;;;;;;;;6202169;22;20032;-93
2023/01/18 02:48:24;;;;;;;13.00;4.10;;;;;;;;;;6214264;23;20058;-93
2023/01/18 02:50:51;;;;;;;8.77;3.30;;;;;;;;;;6211891;23;20016;-95
2023/01/18 02:53:18;;;;;;;9.13;3.67;;;;;;;;;;6212654;23;20009;-93
2023/01/18 02:56:04;;;;;;;13.77;3.45;;;;;;;;;;6212470;23;20004;-93
2023/01/18 02:58:38;;;;;;;11.35;3.47;;;;;;;;;;6211941;23;20016;-93
2023/01/18 03:01:17;;;;;;;12.60;3.63;;;;;;;;;;6211762;23;20009;-94
2023/01/18 03:03:46;;;;;;;5.90;3.70;;;;;;;;;;6213641;23;20368;-94
2023/01/18 03:06:12;;;;;;;5.25;2.85;;;;;;;;;;6214963;23;20004;-93
2023/01/18 03:08:40;;;;;;;14.63;3.97;;;;;;;;;;6187493;23;20013;-94
2023/01/18 03:11:22;;;;;;;7.75;4.05;;;;;;;;;;6213029;23;20009;-94
2023/01/18 03:13:51;;;;;;;6.05;3.10;;;;;;;;;;6213523;23;20633;-93
2023/01/18 03:16:38;;;;;;;8.18;3.80;;;;;;;;;;6213498;23;20005;-93
2023/01/18 03:21:52;;;;;;;9.30;3.67;;;;;;;;;;6214142;23;20088;-93
2023/01/18 03:24:19;;;;;;;12.45;4.63;;;;;;;;;;6189036;23;20111;-94
2023/01/18 03:26:47;;;;;;;7.50;4.35;;;;;;;;;;6213449;23;20032;-93
2023/01/18 03:34:59;;;;;;;12.00;4.75;;;;;;;;;;6215914;23;20051;-92
2023/01/18 03:37:40;;;;;;;7.88;3.90;;;;;;;;;;6213140;23;20011;-93
2023/01/18 03:40:17;;;;;;;11.68;4.32;;;;;;;;;;6210853;22;20024;-93
2023/01/18 03:42:52;;;;;;;10.43;4.38;;;;;;;;;;6212299;23;20031;-93
2023/01/18 03:45:26;;;;;;;7.87;4.00;;;;;;;;;;6213253;23;20032;-94
2023/01/18 03:47:53;;;;;;;15.38;5.30;;;;;;;;;;6212763;23;20008;-94
2023/01/18 03:50:22;;;;;;;7.93;3.97;;;;;;;;;;6211351;23;20031;-94
2023/01/18 03:52:50;;;;;;;12.82;4.38;;;;;;;;;;6213018;23;20015;-95
2023/01/18 03:55:27;;;;;;;7.38;4.53;;;;;;;;;;6214368;23;20353;-95
2023/01/18 03:57:55;;;;;;;11.27;6.00;;;;;;;;;;6189612;23;20012;-93
2023/01/18 04:00:21;;;;;;;13.05;4.13;;;;;;;;;;6215855;23;20438;-94
2023/01/18 04:02:51;;;;;;;10.32;4.93;;;;;;;;;;6189240;23;20012;-93
2023/01/18 04:05:18;;;;;;;9.63;5.10;;;;;;;;;;6189669;23;20032;-95
2023/01/18 04:07:45;;;;;;;11.05;4.97;;;;;;;;;;6211298;23;20005;-95
2023/01/18 04:10:12;;;;;;;10.80;5.00;;;;;;;;;;6189090;23;20336;-94
2023/01/18 04:12:38;;;;;;;7.47;4.80;;;;;;;;;;6213848;23;20015;-94
2023/01/18 04:15:05;;;;;;;12.95;5.00;;;;;;;;;;6212648;23;20513;-95
2023/01/18 04:17:31;;;;;;;12.95;5.18;;;;;;;;;;6187046;23;20012;-95
2023/01/18 04:19:57;;;;;;;13.77;5.13;;;;;;;;;;6211329;23;20091;-96
2023/01/18 04:22:23;;;;;;;16.42;4.57;;;;;;;;;;6187387;23;20012;-95
2023/01/18 04:24:49;;;;;;;11.13;4.78;;;;;;;;;;6187021;23;20179;-94
2023/01/18 04:27:15;;;;;;;14.40;5.30;;;;;;;;;;6212783;23;20421;-94
2023/01/18 04:29:41;;;;;;;15.00;5.32;;;;;;;;;;6185839;23;20016;-93
2023/01/18 04:32:08;;;;;;;11.43;4.05;;;;;;;;;;6211656;23;20048;-94
2023/01/18 04:34:34;;;;;;;11.73;4.28;;;;;;;;;;6211413;23;20070;-94
2023/01/18 04:37:00;;;;;;;11.93;5.47;;;;;;;;;;6187520;23;20013;-94
2023/01/18 04:39:26;;;;;;;9.60;5.03;;;;;;;;;;6212836;23;20005;-95
2023/01/18 04:41:59;;;;;;;8.75;4.38;;;;;;;;;;6215648;22;20079;-94
2023/01/18 04:44:32;;;;;;;18.98;5.22;;;;;;;;;;6212411;23;20032;-95
2023/01/18 04:46:58;;;;;;;10.05;5.68;;;;;;;;;;6186967;23;20013;-94
2023/01/18 04:49:26;;;;;;;17.70;5.10;;;;;;;;;;6186840;23;20008;-94
2023/01/18 04:51:52;;;;;;;10.75;5.00;;;;;;;;;;6185946;23;20016;-94
2023/01/18 04:54:18;;;;;;;12.48;5.50;;;;;;;;;;6185616;23;20424;-95
2023/01/18 04:56:45;;;;;;;5.80;3.38;;;;;;;;;;6186296;23;20147;-95
2023/01/18 04:59:15;;;;;;;8.43;4.85;;;;;;;;;;6210263;23;20019;-95
2023/01/18 05:01:41;;;;;;;10.82;5.95;;;;;;;;;;6186385;23;20013;-94
2023/01/18 05:04:10;;;;;;;16.73;6.13;;;;;;;;;;6210533;23;20071;-95
2023/01/18 05:06:36;;;;;;;14.98;5.88;;;;;;;;;;6187251;23;20005;-95
2023/01/18 05:09:02;;;;;;;18.38;6.15;;;;;;;;;;6211387;23;20007;-94
2023/01/18 05:11:28;;;;;;;17.52;5.97;;;;;;;;;;6186944;23;20402;-96
2023/01/18 05:13:54;;;;;;;19.73;5.78;;;;;;;;;;6213845;23;20080;-95
2023/01/18 05:16:21;;;;;;;16.65;6.03;;;;;;;;;;6189336;23;20008;-95
2023/01/18 05:18:47;;;;;;;12.93;5.68;;;;;;;;;;6215330;23;20444;-95
2023/01/18 05:21:14;;;;;;;13.95;5.68;;;;;;;;;;6189959;23;20387;-95
2023/01/18 05:23:40;;;;;;;11.75;4.93;;;;;;;;;;6213785;23;20005;-94
2023/01/18 05:26:13;;;;;;;12.18;4.75;;;;;;;;;;6214816;23;20516;-96
2023/01/18 05:28:40;;;;;;;23.63;5.80;;;;;;;;;;6191831;23;20437;-96
2023/01/18 05:31:06;;;;;;;9.80;4.07;;;;;;;;;;6215008;23;20004;-94
2023/01/18 05:33:33;;;;;;;14.18;6.63;;;;;;;;;;6190932;23;20012;-95
2023/01/18 05:35:59;;;;;;;15.73;6.15;;;;;;;;;;6191106;23;20019;-94
2023/01/18 05:38:25;;;;;;;13.63;5.63;;;;;;;;;;6192794;23;20009;-94
2023/01/18 05:40:53;;;;;;;12.93;6.20;;;;;;;;;;6217470;22;20013;-94
2023/01/18 05:43:20;;;;;;;12.90;6.32;;;;;;;;;;6216861;23;20016;-92
2023/01/18 05:45:46;;;;;;;7.57;3.47;;;;;;;;;;6191550;23;20009;-96
2023/01/18 05:48:13;;;;;;;3.30;2.70;;;;;;;;;;6217972;23;20429;-96
2023/01/18 05:50:39;;;;;;;20.40;7.43;;;;;;;;;;6218214;23;20483;-94
2023/01/18 05:53:06;;;;;;;15.65;6.85;;;;;;;;;;6216323;23;20008;-95
2023/01/18 05:55:32;;;;;;;13.45;6.18;;;;;;;;;;6215127;23;20601;-95
2023/01/18 05:57:59;;;;;;;11.23;5.00;;;;;;;;;;6187809;23;20016;-94
2023/01/18 06:00:25;;;;;;;16.45;5.93;;;;;;;;;;6190117;23;20452;-95
2023/01/18 06:02:53;;;;;;;15.00;6.93;;;;;;;;;;6189646;23;20012;-95
2023/01/18 06:05:20;;;;;;;16.13;6.50;;;;;;;;;;6216031;23;20240;-96
2023/01/18 06:07:49;;;;;;;16.05;6.20;;;;;;;;;;6215939;23;20005;-94
2023/01/18 06:10:15;;;;;;;11.32;6.13;;;;;;;;;;6215703;23;20004;-95
2023/01/18 06:12:45;;;;;;;25.50;6.70;;;;;;;;;;6189504;23;20012;-95
2023/01/18 06:15:12;;;;;;;14.18;6.40;;;;;;;;;;6191152;23;20019;-94
2023/01/18 06:17:38;;;;;;;11.07;5.45;;;;;;;;;;6188206;23;20013;-95
2023/01/18 06:20:05;;;;;;;10.25;4.70;;;;;;;;;;6212983;23;20089;-94
2023/01/18 06:22:31;;;;;;;15.50;6.75;;;;;;;;;;6214357;23;20012;-95
2023/01/18 06:25:09;;;;;;;17.25;7.05;;;;;;;;;;6218624;23;20055;-96
2023/01/18 06:27:38;;;;;;;29.42;6.45;;;;;;;;;;6199082;23;20016;-95
2023/01/18 06:30:18;;;;;;;13.45;5.60;;;;;;;;;;6227001;23;20333;-96
2023/01/18 06:32:44;;;;;;;16.40;7.22;;;;;;;;;;6221315;23;20389;-95
2023/01/18 06:38:25;;;;;;;13.85;6.38;;;;;;;;;;6273818;22;20020;-95
2023/01/18 06:40:51;;;;;;;16.23;6.57;;;;;;;;;;6238075;22;20007;-96
2023/01/18 06:43:17;;;;;;;16.85;6.38;;;;;;;;;;6262441;22;20027;-95
2023/01/18 06:45:43;;;;;;;15.93;6.93;;;;;;;;;;6245880;23;20008;-95
2023/01/18 06:48:09;;;;;;;18.23;5.22;;;;;;;;;;6234794;23;20000;-95
2023/01/18 06:50:35;;;;;;;11.77;4.32;;;;;;;;;;6235171;23;20004;-94
2023/01/18 06:53:01;;;;;;;14.15;6.55;;;;;;;;;;6239186;23;20051;-94
2023/01/18 06:55:27;;;;;;;11.23;5.72;;;;;;;;;;6243105;23;20026;-93
2023/01/18 06:57:55;;;;;;;18.40;5.93;;;;;;;;;;6241975;23;20004;-94
2023/01/18 07:00:21;;;;;;;3.22;1.75;;;;;;;;;;6242607;23;20005;-96
2023/01/18 07:02:47;;;;;;;8.43;4.63;;;;;;;;;;6238772;23;20344;-95
2023/01/18 07:05:15;;;;;;;13.05;5.65;;;;;;;;;;6235872;23;20044;-94
2023/01/18 07:07:44;;;;;;;8.45;3.63;;;;;;;;;;6234323;23;20015;-94
2023/01/18 07:10:11;;;;;;;9.43;5.07;;;;;;;;;;6257545;23;19996;-96
2023/01/18 07:12:37;;;;;;;17.48;6.50;;;;;;;;;;6229832;23;20096;-94
2023/01/18 07:15:05;;;;;;;6.88;2.67;;;;;;;;;;6228902;23;20008;-96
2023/01/18 07:17:31;;;;;;;14.43;6.70;;;;;;;;;;6230085;23;20012;-95
2023/01/18 07:19:57;;;;;;;10.02;3.50;;;;;;;;;;6228572;23;20447;-94
2023/01/18 07:22:25;;;;;;;13.98;5.85;;;;;;;;;;6228312;23;20054;-95
2023/01/18 07:24:51;;;;;;;20.30;6.20;;;;;;;;;;6229064;23;20504;-96
2023/01/18 07:27:17;;;;;;;17.20;7.00;;;;;;;;;;6226800;23;20010;-94
2023/01/18 07:29:43;;;;;;;13.93;6.18;;;;;;;;;;6227518;23;20008;-95
2023/01/18 07:32:09;;;;;;;13.60;6.03;;;;;;;;;;6226878;23;20042;-95
2023/01/18 07:34:35;;;;;;;12.00;5.28;;;;;;;;;;6227486;23;20008;-95
2023/01/18 07:37:01;;;;;;;14.13;5.28;;;;;;;;;;6227861;22;20012;-95
2023/01/18 07:39:34;;;;;;;12.85;6.38;;;;;;;;;;6196040;22;20020;-94
2023/01/18 07:42:00;;;;;;;13.15;6.65;;;;;;;;;;6193517;23;20449;-95
2023/01/18 07:44:26;;;;;;;20.58;6.93;;;;;;;;;;6192386;23;20059;-95
2023/01/18 07:46:52;;;;;;;6.47;3.53;;;;;;;;;;6192722;23;20059;-94
2023/01/18 07:49:18;;;;;;;13.23;5.95;;;;;;;;;;6192400;23;20033;-93
2023/01/18 07:51:44;;;;;;;20.27;7.93;;;;;;;;;;6191749;23;20376;-95
2023/01/18 07:54:10;;;;;;;13.48;5.95;;;;;;;;;;6191941;23;20016;-94
2023/01/18 07:56:37;;;;;;;14.43;6.20;;;;;;;;;;6192783;23;20444;-95
2023/01/18 07:59:04;;;;;;;7.07;3.35;;;;;;;;;;6191857;23;20005;-95
2023/01/18 08:01:30;;;;;;;13.75;5.72;;;;;;;;;;6191854;23;20012;-94
2023/01/18 08:03:56;;;;;;;18.35;7.40;;;;;;;;;;6191867;23;20422;-94
2023/01/18 08:06:26;;;;;;;12.43;5.07;;;;;;;;;;6191428;23;20005;-95
2023/01/18 08:08:53;;;;;;;10.32;5.55;;;;;;;;;;6191920;23;20092;-94
2023/01/18 08:11:19;;;;;;;8.90;4.97;;;;;;;;;;6190436;23;20008;-95
2023/01/18 08:13:48;;;;;;;8.07;4.38;;;;;;;;;;6190175;23;20016;-96
2023/01/18 08:16:14;;;;;;;4.90;2.58;;;;;;;;;;6189619;23;20052;-94
2023/01/18 08:18:41;;;;;;;12.15;5.05;;;;;;;;;;6190489;23;20028;-94
2023/01/18 08:21:10;;;;;;;12.32;5.30;;;;;;;;;;6190252;23;20457;-95
2023/01/18 08:23:37;;;;;;;8.90;4.28;;;;;;;;;;6191247;23;20009;-94
2023/01/18 08:26:04;;;;;;;10.55;4.03;;;;;;;;;;6190864;23;20012;-96
2023/01/18 08:28:30;;;;;;;12.43;5.95;;;;;;;;;;6189940;23;20009;-95
2023/01/18 08:31:05;;;;;;;12.93;4.28;;;;;;;;;;6190517;23;20017;-95
2023/01/18 08:33:31;;;;;;;9.05;4.95;;;;;;;;;;6190494;23;20500;-96
2023/01/18 08:35:57;;;;;;;10.27;4.65;;;;;;;;;;6190854;23;20005;-94
2023/01/18 08:38:23;;;;;;;9.55;3.28;;;;;;;;;;6193765;22;20364;-94
2023/01/18 08:40:49;;;;;;;7.32;2.10;;;;;;;;;;6191326;23;20092;-95
2023/01/18 08:43:15;;;;;;;12.27;3.42;;;;;;;;;;6190870;23;20005;-95
2023/01/18 08:45:41;;;;;;;5.65;3.35;;;;;;;;;;6190886;23;20012;-94
2023/01/18 08:48:09;;;;;;;9.35;4.60;;;;;;;;;;6191203;23;20345;-94
2023/01/18 08:50:35;;;;;;;9.77;3.28;;;;;;;;;;6191019;23;20005;-95
2023/01/18 08:53:03;;;;;;;10.48;4.57;;;;;;;;;;6190248;23;20463;-95
2023/01/18 08:55:35;;;;;;;6.53;3.80;;;;;;;;;;6194697;23;20012;-93
2023/01/18 08:58:01;;;;;;;10.95;5.10;;;;;;;;;;6192472;23;20005;-95
2023/01/18 09:00:27;;;;;;;13.27;4.97;;;;;;;;;;6190894;23;20083;-95
2023/01/18 09:02:54;;;;;;;13.15;5.20;;;;;;;;;;6190507;23;20455;-96
2023/01/18 09:05:20;;;;;;;12.02;5.65;;;;;;;;;;6190906;23;20369;-94
2023/01/18 09:07:46;;;;;;;5.05;1.98;;;;;;;;;;6190502;23;20097;-94
2023/01/18 09:10:12;;;;;;;27.25;6.68;;;;;;;;;;6190084;23;20009;-94
2023/01/18 09:12:40;;;;;;;4.10;2.55;;;;;;;;;;6191281;23;20012;-96
2023/01/18 09:15:06;;;;;;;7.55;3.25;;;;;;;;;;6192129;23;20445;-95
2023/01/18 09:17:33;;;;;;;12.18;4.60;;;;;;;;;;6191998;23;20438;-96
2023/01/18 09:19:59;;;;;;;11.98;3.58;;;;;;;;;;6191444;23;20005;-95
2023/01/18 09:22:25;;;;;;;10.52;4.32;;;;;;;;;;6192119;23;20006;-95
2023/01/18 09:24:53;;;;;;;7.72;3.47;;;;;;;;;;6192584;23;20005;-95
2023/01/18 09:27:19;;;;;;;10.02;4.28;;;;;;;;;;6192286;23;20392;-95
2023/01/18 09:29:50;;;;;;;12.10;3.30;;;;;;;;;;6191895;23;20025;-96
2023/01/18 09:32:16;;;;;;;5.80;2.42;;;;;;;;;;6192897;23;20059;-96
2023/01/18 09:34:45;;;;;;;9.18;5.18;;;;;;;;;;6192377;23;20017;-94
2023/01/18 09:37:11;;;;;;;6.97;4.10;;;;;;;;;;6194259;23;20005;-95
2023/01/18 09:39:37;;;;;;;6.72;2.22;;;;;;;;;;6218673;22;20082;-95
2023/01/18 09:42:03;;;;;;;9.02;2.75;;;;;;;;;;6195672;23;20068;-94
2023/01/18 09:44:32;;;;;;;8.65;3.67;;;;;;;;;;6195326;23;20453;-95
2023/01/18 09:47:19;;;;;;;12.10;4.00;;;;;;;;;;6198004;23;20051;-96
2023/01/18 09:50:09;;;;;;;10.68;3.67;;;;;;;;;;6202553;23;20398;-94
2023/01/18 09:52:35;;;;;;;6.20;3.38;;;;;;;;;;6204274;23;20005;-93
2023/01/18 09:55:05;;;;;;;9.43;3.63;;;;;;;;;;6207718;23;20012;-95
2023/01/18 09:57:31;;;;;;;12.20;4.95;;;;;;;;;;6207745;23;20016;-94
2023/01/18 09:59:58;;;;;;;9.07;2.88;;;;;;;;;;6208437;23;20019;-93
2023/01/18 10:02:27;;;;;;;7.68;3.15;;;;;;;;;;6206174;23;20040;-96
2023/01/18 10:05:00;;;;;;;5.55;2.90;;;;;;;;;;6204600;23;20005;-95
2023/01/18 10:07:29;;;;;;;11.75;4.90;;;;;;;;;;6195701;23;20005;-95
2023/01/18 10:09:56;;;;;;;14.75;5.30;;;;;;;;;;6193314;23;20366;-96
2023/01/18 10:12:29;;;;;;;5.80;2.28;;;;;;;;;;6193189;23;20012;-95
2023/01/18 10:14:59;;;;;;;14.20;4.70;;;;;;;;;;6193936;23;20009;-95
2023/01/18 10:17:37;;;;;;;9.50;3.63;;;;;;;;;;6192962;23;20338;-95
2023/01/18 10:20:21;;;;;;;9.98;5.05;;;;;;;;;;6193906;23;20438;-94
2023/01/18 10:22:54;;;;;;;3.80;2.45;;;;;;;;;;6193686;23;20012;-94
2023/01/18 10:25:29;;;;;;;7.40;3.15;;;;;;;;;;6193929;23;20005;-94
2023/01/18 10:27:59;;;;;;;7.10;3.42;;;;;;;;;;6194488;23;20005;-94
2023/01/18 10:30:31;;;;;;;15.48;3.83;;;;;;;;;;6195118;23;20080;-94
2023/01/18 10:32:59;;;;;;;6.18;3.25;;;;;;;;;;6195032;23;20008;-96
2023/01/18 10:35:31;;;;;;;4.65;2.45;;;;;;;;;;6193821;23;20085;-96
2023/01/18 10:38:09;;;;;;;10.00;3.03;;;;;;;;;;6211013;22;20023;-96
2023/01/18 10:40:46;;;;;;;10.68;4.82;;;;;;;;;;6230843;23;20015;-96
2023/01/18 10:43:15;;;;;;;6.55;2.03;;;;;;;;;;6228083;23;20015;-96
2023/01/18 10:45:42;;;;;;;9.90;3.45;;;;;;;;;;6228169;23;20024;-96
2023/01/18 10:48:17;;;;;;;6.18;2.88;;;;;;;;;;6229799;23;20055;-96
2023/01/18 10:50:51;;;;;;;6.47;3.72;;;;;;;;;;6228541;23;20008;-96
2023/01/18 10:53:23;;;;;;;6.32;3.38;;;;;;;;;;6228626;23;20034;-96
2023/01/18 10:56:11;;;;;;;2.80;2.47;;;;;;;;;;6228884;23;20034;-96
2023/01/18 10:58:52;;;;;;;7.45;3.50;;;;;;;;;;6216366;23;20008;-96
2023/01/18 11:01:23;;;;;;;9.05;4.05;;;;;;;;;;6230268;23;20014;-96
2023/01/18 11:03:54;;;;;;;6.65;3.38;;;;;;;;;;6231216;23;20004;-96
2023/01/18 11:06:21;;;;;;;9.27;3.42;;;;;;;;;;6233630;23;20478;-96
2023/01/18 11:08:47;;;;;;;10.88;3.95;;;;;;;;;;6238062;23;20059;-96
2023/01/18 11:11:14;;;;;;;7.53;4.40;;;;;;;;;;6237084;23;20011;-96
2023/01/18 11:13:41;;;;;;;3.92;2.85;;;;;;;;;;6237934;23;20000;-95
2023/01/18 11:16:14;;;;;;;6.78;4.15;;;;;;;;;;6239299;23;20007;-96
2023/01/18 11:18:55;;;;;;;7.40;4.15;;;;;;;;;;6241767;23;20007;-96
2023/01/18 11:21:22;;;;;;;12.70;4.05;;;;;;;;;;6242419;23;20008;-96
2023/01/18 11:23:54;;;;;;;9.27;4.40;;;;;;;;;;6242874;23;20005;-96
2023/01/18 11:26:27;;;;;;;5.65;2.97;;;;;;;;;;6242025;22;20011;-96
2023/01/18 11:29:22;;;;;;;11.32;3.50;;;;;;;;;;6269491;23;20004;-96
2023/01/18 11:31:49;;;;;;;6.90;4.18;;;;;;;;;;6233886;23;20008;-96
2023/01/18 11:34:24;;;;;;;6.63;3.38;;;;;;;;;;6242734;23;20054;-96
2023/01/18 11:37:29;;;;;;;;;;;;;;;;;;;;;
2023/01/18 11:40:31;;;;;;;13.38;4.15;;;;;;;;;;6273350;22;20015;-96
2023/01/18 11:43:50;;;;;;;5.55;3.42;;;;;;;;;;6272947;23;20003;-96
2023/01/18 11:46:42;;;;;;;9.85;3.30;;;;;;;;;;6222048;22;20021;-92
2023/01/18 11:49:23;;;;;;;6.63;3.90;;;;;;;;;;6187335;23;20009;-93
2023/01/18 11:51:52;;;;;;;4.80;3.03;;;;;;;;;;6186939;23;20416;-92
2023/01/18 11:54:21;;;;;;;12.27;4.15;;;;;;;;;;6186454;23;20039;-93
2023/01/18 11:56:47;;;;;;;9.30;3.22;;;;;;;;;;6187292;23;20310;-92
2023/01/18 11:59:15;;;;;;;8.27;2.85;;;;;;;;;;6186336;23;20008;-92
2023/01/18 12:02:11;;;;;;;7.38;3.67;;;;;;;;;;6187985;23;20012;-92
2023/01/18 12:04:55;;;;;;;6.22;3.70;;;;;;;;;;6083174;23;20010;-92
2023/01/18 12:07:42;;;;;;;3.72;2.53;;;;;;;;;;6185715;23;20433;-92
2023/01/18 12:10:22;;;;;;;9.80;4.55;;;;;;;;;;6185133;23;20011;-92
2023/01/18 12:13:09;;;;;;;6.22;2.78;;;;;;;;;;6211358;23;20610;-92
2023/01/18 12:15:44;;;;;;;8.32;4.18;;;;;;;;;;6186673;23;20087;-93
2023/01/18 12:18:22;;;;;;;5.65;3.00;;;;;;;;;;6185169;23;20004;-92
2023/01/18 12:20:57;;;;;;;5.40;2.78;;;;;;;;;;6186510;23;20036;-92
2023/01/18 12:23:30;;;;;;;7.22;3.08;;;;;;;;;;6185461;23;20008;-92
2023/01/18 12:26:02;;;;;;;13.32;3.83;;;;;;;;;;6185206;23;20009;-92
2023/01/18 12:28:47;;;;;;;13.73;4.03;;;;;;;;;;6185261;23;20008;-92
2023/01/18 12:31:20;;;;;;;11.63;2.63;;;;;;;;;;6186405;23;20447;-92
2023/01/18 12:33:49;;;;;;;8.18;3.28;;;;;;;;;;6184387;23;20005;-93
2023/01/18 12:36:23;;;;;;;4.05;2.38;;;;;;;;;;6189469;23;20062;-93
2023/01/18 12:38:53;;;;;;;9.40;3.08;;;;;;;;;;6185698;23;20045;-93
2023/01/18 12:41:25;;;;;;;5.57;3.13;;;;;;;;;;6187419;23;20035;-95
2023/01/18 12:52:55;;;;;;;9.57;3.05;;;;;;;;;;6264396;22;20027;-92
2023/01/18 12:55:24;;;;;;;6.43;2.97;;;;;;;;;;6247015;22;20063;-93
2023/01/18 12:58:00;;;;;;;4.82;2.70;;;;;;;;;;6243257;22;20458;-94
2023/01/18 13:00:27;;;;;;;2.67;2.35;;;;;;;;;;6246445;22;20051;-93
2023/01/18 13:02:56;;;;;;;7.43;2.53;;;;;;;;;;6247089;22;20038;-94
2023/01/18 13:05:22;;;;;;;9.70;3.38;;;;;;;;;;6246065;22;20316;-94
2023/01/18 13:07:56;;;;;;;5.80;1.95;;;;;;;;;;6245460;22;20010;-93
2023/01/18 13:10:23;;;;;;;10.45;2.83;;;;;;;;;;6246201;22;20015;-94
2023/01/18 13:12:50;;;;;;;12.73;2.78;;;;;;;;;;6247191;22;20003;-94
2023/01/18 13:15:28;;;;;;;5.35;2.40;;;;;;;;;;6222159;22;20054;-95
2023/01/18 13:18:05;;;;;;;3.50;2.20;;;;;;;;;;6247891;22;20004;-95
2023/01/18 13:20:51;;;;;;;5.15;2.97;;;;;;;;;;6248503;22;20060;-95
2023/01/18 13:23:31;;;;;;;21.00;4.07;;;;;;;;;;6245698;22;20012;-95
2023/01/18 13:26:09;;;;;;;11.30;2.72;;;;;;;;;;6247193;22;20000;-94
2023/01/18 13:28:37;;;;;;;13.07;4.85;;;;;;;;;;6247060;22;20497;-94
2023/01/18 13:31:06;;;;;;;3.72;2.13;;;;;;;;;;6221421;22;20003;-94
2023/01/18 13:33:38;;;;;;;7.72;3.03;;;;;;;;;;6224250;22;20449;-95
2023/01/18 13:36:45;;;;;;;6.15;3.05;;;;;;;;;;6224589;22;20098;-95
2023/01/18 13:39:13;;;;;;;9.63;2.60;;;;;;;;;;6273861;22;20057;-93
2023/01/18 13:41:39;;;;;;;8.52;3.45;;;;;;;;;;6244929;22;20004;-93
2023/01/18 13:44:06;;;;;;;3.90;1.88;;;;;;;;;;6218583;22;20104;-93
2023/01/18 13:46:35;;;;;;;7.07;3.53;;;;;;;;;;6217101;23;20003;-94
2023/01/18 13:49:22;;;;;;;10.55;3.33;;;;;;;;;;6243383;23;20448;-93
2023/01/18 13:51:50;;;;;;;;;;;;;;;;;;6198596;22;20091;-94
2023/01/18 13:54:23;;;;;;;5.82;2.63;;;;;;;;;;6186582;22;19923;-93
2023/01/18 13:57:04;;;;;;;5.50;2.20;;;;;;;;;;6182729;23;20019;-94
2023/01/18 13:59:35;;;;;;;9.55;3.70;;;;;;;;;;6184438;23;20017;-94
2023/01/18 14:02:07;;;;;;;4.13;2.20;;;;;;;;;;6185396;23;20025;-94
2023/01/18 14:04:38;;;;;;;5.35;2.50;;;;;;;;;;6187227;23;20436;-96
2023/01/18 14:12:18;;;;;;;;;;;;;;;;;;6231133;22;20036;-95
2023/01/18 14:14:57;;;;;;;8.07;2.63;;;;;;;;;;6253248;22;19899;-95
2023/01/18 14:17:24;;;;;;;5.80;2.45;;;;;;;;;;6256258;22;20339;-95
2023/01/18 14:19:56;;;;;;;6.13;2.25;;;;;;;;;;6252769;22;19996;-96
2023/01/18 14:22:41;;;;;;;5.53;2.50;;;;;;;;;;6247710;22;20007;-96
2023/01/18 14:25:20;;;;;;;6.72;2.47;;;;;;;;;;6247538;22;20011;-95
2023/01/18 14:27:48;;;;;;;6.88;3.00;;;;;;;;;;6249550;22;20332;-96
2023/01/18 14:30:24;;;;;;;13.20;3.35;;;;;;;;;;6249049;22;20003;-96
2023/01/18 14:32:50;;;;;;;;;;;;;;;;;;6250260;22;20008;-96
2023/01/18 14:35:21;;;;;;;5.68;1.95;;;;;;;;;;6252373;22;19899;-96
2023/01/18 14:37:50;;;;;;;12.05;3.05;;;;;;;;;;6250432;22;20012;-96
2023/01/18 14:40:19;;;;;;;5.80;2.42;;;;;;;;;;6251099;22;20091;-96
2023/01/18 14:42:45;;;;;;;5.35;2.22;;;;;;;;;;6248921;22;20493;-96
2023/01/18 14:45:18;;;;;;;4.85;2.28;;;;;;;;;;6232438;23;20087;-96
2023/01/18 14:47:46;;;;;;;3.72;2.20;;;;;;;;;;6243875;23;20008;-96
2023/01/18 14:50:19;;;;;;;7.55;3.35;;;;;;;;;;6193327;23;20012;-96
2023/01/18 14:52:45;;;;;;;7.70;2.95;;;;;;;;;;6243144;23;20008;-96
2023/01/18 14:55:24;;;;;;;9.18;3.20;;;;;;;;;;6242008;23;20008;-95
2023/01/18 14:57:51;;;;;;;5.15;1.80;;;;;;;;;;6244985;23;20462;-95
2023/01/18 15:00:17;;;;;;;11.02;3.65;;;;;;;;;;6246426;23;20008;-95
2023/01/18 15:02:46;;;;;;;8.10;2.70;;;;;;;;;;6247091;23;20019;-96
2023/01/18 15:05:16;;;;;;;7.82;2.70;;;;;;;;;;6196467;23;20123;-96
2023/01/18 15:07:56;;;;;;;5.05;2.70;;;;;;;;;;6243217;23;20036;-96
2023/01/18 15:10:23;;;;;;;15.30;3.17;;;;;;;;;;6241956;23;20004;-95
2023/01/18 15:12:54;;;;;;;6.93;2.65;;;;;;;;;;6237153;22;20352;-96
2023/01/18 15:15:45;;;;;;;3.08;1.98;;;;;;;;;;6208377;23;20329;-96
2023/01/18 15:18:17;;;;;;;7.18;3.10;;;;;;;;;;6210840;23;20106;-96
2023/01/18 15:21:02;;;;;;;4.72;1.92;;;;;;;;;;6212250;23;20337;-96
2023/01/18 15:23:32;;;;;;;7.40;1.92;;;;;;;;;;6213304;23;20397;-96
2023/01/18 15:26:35;;;;;;;4.80;2.90;;;;;;;;;;6212976;23;20338;-96
2023/01/18 15:29:08;;;;;;;4.40;2.70;;;;;;;;;;6213202;23;20012;-96
2023/01/18 15:31:50;;;;;;;8.40;3.08;;;;;;;;;;6216208;23;20210;-96
2023/01/18 17:42:01;;;;;;;5.85;3.55;;;;;;;;;;6249741;22;20023;-95
2023/01/18 17:44:44;;;;;;;7.68;3.00;;;;;;;;;;6222597;23;20548;-94
2023/01/18 17:47:18;;;;;;;6.07;2.80;;;;;;;;;;6193599;23;20008;-93
2023/01/18 17:49:49;;;;;;;8.35;3.08;;;;;;;;;;6217808;23;20448;-93
2023/01/18 17:52:15;;;;;;;4.93;2.88;;;;;;;;;;6190392;23;20065;-93
2023/01/18 17:54:42;;;;;;;6.15;3.35;;;;;;;;;;6193343;23;20016;-92
2023/01/18 17:57:08;;;;;;;5.47;2.38;;;;;;;;;;6193019;23;20486;-94